Time,TemperatureF,DewpointF,PressureIn,WindDirection,WindDirectionDegrees,WindSpeedMPH,WindSpeedGustMPH,Humidity,HourlyPrecipIn,Conditions,Clouds,dailyrainin,SoftwareType,DateUTC
2013-11-07 00:00:00,51.9,49.6,29.89,West,281,0.0,0.0,92,0.00,,,0.00,Wunderground v.1.15,2013-11-07 05:00:00,
2013-11-07 00:05:00,51.4,49.4,29.89,NNW,328,0.0,0.0,93,0.00,,,0.00,Wunderground v.1.15,2013-11-07 05:05:00,
2013-11-07 00:10:00,51.1,49.1,29.89,NE,43,0.0,0.0,93,0.00,,,0.00,Wunderground v.1.15,2013-11-07 05:10:00,
2013-11-07 00:15:00,50.7,48.7,29.90,SSE,156,0.0,0.0,93,0.00,,,0.00,Wunderground v.1.15,2013-11-07 05:15:00,
2013-11-07 00:19:00,50.2,48.3,29.90,ENE,74,0.0,0.0,93,0.00,,,0.00,Wunderground v.1.15,2013-11-07 05:19:00,
2013-11-07 00:24:00,49.9,48.0,29.90,WSW,254,0.0,0.0,93,0.00,,,0.00,Wunderground v.1.15,2013-11-07 05:24:00,
2013-11-07 00:30:00,49.6,47.7,29.90,ENE,66,0.0,0.0,93,0.00,,,0.00,Wunderground v.1.15,2013-11-07 05:30:00,
2013-11-07 00:40:00,49.2,47.3,29.90,NNE,24,0.0,0.0,93,0.00,,,0.00,Wunderground v.1.15,2013-11-07 05:40:00,
2013-11-07 00:45:00,48.8,46.9,29.90,WSW,252,0.0,0.0,93,0.00,,,0.00,Wunderground v.1.15,2013-11-07 05:45:00,
2013-11-07 00:55:00,47.9,46.0,29.90,NNE,21,0.0,0.0,93,0.00,,,0.00,Wunderground v.1.15,2013-11-07 05:55:00,
2013-11-07 01:00:00,47.4,45.5,29.90,NNE,17,0.0,0.0,93,0.00,,,0.00,Wunderground v.1.15,2013-11-07 06:00:00,
2013-11-07 01:10:00,46.5,44.6,29.90,NE,42,0.0,0.0,93,0.00,,,0.00,Wunderground v.1.15,2013-11-07 06:10:00,
2013-11-07 01:15:00,46.0,44.1,29.92,ENE,61,0.0,1.0,93,0.00,,,0.00,Wunderground v.1.15,2013-11-07 06:15:00,
2013-11-07 01:25:00,45.2,43.3,29.92,SW,224,0.0,0.0,93,0.00,,,0.00,Wunderground v.1.15,2013-11-07 06:25:00,
2013-11-07 01:30:00,44.9,43.0,29.92,WSW,254,0.0,0.0,93,0.00,,,0.00,Wunderground v.1.15,2013-11-07 06:30:00,
2013-11-07 01:40:00,44.3,42.1,29.92,NNE,19,0.0,0.0,92,0.00,,,0.00,Wunderground v.1.15,2013-11-07 06:40:00,
2013-11-07 01:45:00,44.1,42.2,29.89,NE,49,0.0,0.0,93,0.00,,,0.00,Wunderground v.1.15,2013-11-07 06:45:00,
2013-11-07 01:55:00,43.9,42.0,29.89,WSW,254,0.0,5.0,93,0.00,,,0.00,Wunderground v.1.15,2013-11-07 06:55:00,
2013-11-07 02:00:00,43.9,42.0,29.92,East,98,0.0,0.0,93,0.00,,,0.00,Wunderground v.1.15,2013-11-07 07:00:00,
2013-11-07 02:10:00,43.8,42.2,29.92,West,265,0.0,0.0,94,0.00,,,0.00,Wunderground v.1.15,2013-11-07 07:10:00,
2013-11-07 02:20:00,43.6,42.0,29.92,NE,34,0.0,0.0,94,0.00,,,0.00,Wunderground v.1.15,2013-11-07 07:20:00,
2013-11-07 02:25:00,43.5,41.9,29.92,WSW,244,0.0,0.0,94,0.00,,,0.00,Wunderground v.1.15,2013-11-07 07:25:00,
2013-11-07 02:40:00,43.1,41.2,29.92,NNE,13,1.0,1.0,93,0.00,,,0.00,Wunderground v.1.15,2013-11-07 07:40:00,
2013-11-07 02:49:00,42.9,41.0,29.94,NNW,340,0.0,0.0,93,0.00,,,0.00,Wunderground v.1.15,2013-11-07 07:49:00,
2013-11-07 02:54:00,42.9,41.3,29.94,ENE,58,0.0,0.0,94,0.00,,,0.00,Wunderground v.1.15,2013-11-07 07:54:00,
2013-11-07 03:05:00,42.8,41.2,29.93,NE,36,0.0,0.0,94,0.00,,,0.00,Wunderground v.1.15,2013-11-07 08:05:00,
2013-11-07 03:20:00,42.6,41.0,29.92,SW,226,0.0,0.0,94,0.00,,,0.00,Wunderground v.1.15,2013-11-07 08:20:00,
2013-11-07 03:25:00,42.5,40.9,29.92,South,171,0.0,0.0,94,0.00,,,0.00,Wunderground v.1.15,2013-11-07 08:25:00,
2013-11-07 03:35:00,42.3,40.7,29.94,SW,221,0.0,0.0,94,0.00,,,0.00,Wunderground v.1.15,2013-11-07 08:35:00,
2013-11-07 03:40:00,42.3,40.7,29.94,ENE,65,0.0,0.0,94,0.00,,,0.00,Wunderground v.1.15,2013-11-07 08:40:00,
2013-11-07 03:55:00,42.2,40.6,29.94,East,92,0.0,0.0,94,0.00,,,0.00,Wunderground v.1.15,2013-11-07 08:55:00,
2013-11-07 04:05:00,42.1,40.5,29.93,ENE,59,0.0,0.0,94,0.00,,,0.00,Wunderground v.1.15,2013-11-07 09:05:00,
2013-11-07 04:19:00,42.1,40.5,29.95,WSW,246,0.0,0.0,94,0.00,,,0.00,Wunderground v.1.15,2013-11-07 09:19:00,
2013-11-07 04:24:00,42.1,40.5,29.95,SW,219,0.0,0.0,94,0.00,,,0.00,Wunderground v.1.15,2013-11-07 09:24:00,
2013-11-07 04:30:00,41.9,40.3,29.96,SSE,159,0.0,0.0,94,0.00,,,0.00,Wunderground v.1.15,2013-11-07 09:30:00,
2013-11-07 04:40:00,41.8,39.9,29.96,West,268,0.0,1.0,93,0.00,,,0.00,Wunderground v.1.15,2013-11-07 09:40:00,
2013-11-07 04:45:00,41.6,39.7,29.97,ESE,107,0.0,1.0,93,0.00,,,0.00,Wunderground v.1.15,2013-11-07 09:45:00,
2013-11-07 04:55:00,41.6,39.7,29.97,NNE,19,0.0,2.0,93,0.00,,,0.00,Wunderground v.1.15,2013-11-07 09:55:00,
2013-11-07 05:00:00,41.5,39.6,29.97,NE,44,0.0,0.0,93,0.00,,,0.00,Wunderground v.1.15,2013-11-07 10:00:00,
2013-11-07 05:10:00,41.3,39.4,29.97,NNE,29,0.0,0.0,93,0.00,,,0.00,Wunderground v.1.15,2013-11-07 10:10:00,
2013-11-07 05:15:00,41.3,39.2,29.98,NNE,13,0.0,0.0,92,0.00,,,0.00,Wunderground v.1.15,2013-11-07 10:15:00,
2013-11-07 05:25:00,41.2,39.1,29.98,ENE,73,0.0,0.0,92,0.00,,,0.00,Wunderground v.1.15,2013-11-07 10:25:00,
2013-11-07 05:30:00,41.2,39.1,29.97,ENE,77,0.0,0.0,92,0.00,,,0.00,Wunderground v.1.15,2013-11-07 10:30:00,
2013-11-07 05:40:00,41.1,39.0,29.97,SW,236,0.0,0.0,92,0.00,,,0.00,Wunderground v.1.15,2013-11-07 10:40:00,
2013-11-07 05:45:00,40.9,38.8,29.97,North,10,0.0,0.0,92,0.00,,,0.00,Wunderground v.1.15,2013-11-07 10:45:00,
2013-11-07 05:55:00,40.9,38.8,29.97,East,80,0.0,0.0,92,0.00,,,0.00,Wunderground v.1.15,2013-11-07 10:55:00,
2013-11-07 06:00:00,40.8,38.7,29.99,ENE,76,0.0,0.0,92,0.00,,,0.00,Wunderground v.1.15,2013-11-07 11:00:00,
2013-11-07 06:10:00,40.8,38.7,29.99,North,5,0.0,0.0,92,0.00,,,0.00,Wunderground v.1.15,2013-11-07 11:10:00,
2013-11-07 06:15:00,40.8,38.4,30.00,North,360,0.0,0.0,91,0.00,,,0.00,Wunderground v.1.15,2013-11-07 11:15:00,
2013-11-07 06:25:00,40.8,38.4,30.00,ENE,71,0.0,0.0,91,0.00,,,0.00,Wunderground v.1.15,2013-11-07 11:25:00,
2013-11-07 06:30:00,40.9,38.5,30.00,NNW,330,0.0,0.0,91,0.00,,,0.00,Wunderground v.1.15,2013-11-07 11:30:00,
2013-11-07 06:40:00,40.8,38.4,30.00,North,5,0.0,0.0,91,0.00,,,0.00,Wunderground v.1.15,2013-11-07 11:40:00,
2013-11-07 06:45:00,40.8,38.1,30.01,East,84,0.0,0.0,90,0.00,,,0.00,Wunderground v.1.15,2013-11-07 11:45:00,
2013-11-07 06:55:00,40.8,38.1,30.01,NE,38,0.0,0.0,90,0.00,,,0.00,Wunderground v.1.15,2013-11-07 11:55:00,
2013-11-07 07:00:00,40.8,38.1,30.02,ENE,74,0.0,0.0,90,0.00,,,0.00,Wunderground v.1.15,2013-11-07 12:00:00,
2013-11-07 07:10:00,40.8,38.1,30.02,East,92,0.0,0.0,90,0.00,,,0.00,Wunderground v.1.15,2013-11-07 12:10:00,
2013-11-07 07:15:00,40.6,37.9,30.02,North,360,0.0,0.0,90,0.00,,,0.00,Wunderground v.1.15,2013-11-07 12:15:00,
2013-11-07 07:25:00,40.2,37.5,30.02,NE,50,0.0,0.0,90,0.00,,,0.00,Wunderground v.1.15,2013-11-07 12:25:00,
2013-11-07 07:30:00,40.1,37.7,30.03,NE,51,0.0,0.0,91,0.00,,,0.00,Wunderground v.1.15,2013-11-07 12:30:00,
2013-11-07 07:39:00,39.9,37.5,30.03,NNE,23,0.0,0.0,91,0.00,,,0.00,Wunderground v.1.15,2013-11-07 12:39:00,
2013-11-07 07:45:00,39.9,37.8,30.04,SW,230,0.0,0.0,92,0.00,,,0.00,Wunderground v.1.15,2013-11-07 12:45:00,
2013-11-07 07:54:00,39.9,37.8,30.04,ENE,78,0.0,0.0,92,0.00,,,0.00,Wunderground v.1.15,2013-11-07 12:54:00,
2013-11-07 08:00:00,39.9,37.8,30.04,ENE,78,0.0,0.0,92,0.00,,,0.00,Wunderground v.1.15,2013-11-07 13:00:00,
2013-11-07 08:05:00,39.9,37.8,30.04,ENE,78,0.0,0.0,92,0.00,,,0.00,Wunderground v.1.15,2013-11-07 13:05:00,
2013-11-07 08:15:00,40.1,38.0,30.05,ENE,77,0.0,0.0,92,0.00,,,0.00,Wunderground v.1.15,2013-11-07 13:15:00,
2013-11-07 08:25:00,40.2,38.1,30.05,East,101,0.0,0.0,92,0.00,,,0.00,Wunderground v.1.15,2013-11-07 13:25:00,
2013-11-07 08:30:00,40.2,38.1,30.05,North,355,0.0,0.0,92,0.00,,,0.00,Wunderground v.1.15,2013-11-07 13:30:00,
2013-11-07 08:40:00,40.5,37.8,30.05,North,11,0.0,0.0,90,0.00,,,0.00,Wunderground v.1.15,2013-11-07 13:40:00,
2013-11-07 08:45:00,40.6,37.6,30.06,ENE,64,0.0,0.0,89,0.00,,,0.00,Wunderground v.1.15,2013-11-07 13:45:00,
2013-11-07 08:55:00,40.8,37.5,30.06,South,180,0.0,0.0,88,0.00,,,0.00,Wunderground v.1.15,2013-11-07 13:55:00,
2013-11-07 09:00:00,40.8,37.2,30.07,ESE,116,0.0,0.0,87,0.00,,,0.00,Wunderground v.1.15,2013-11-07 14:00:00,
2013-11-07 09:10:00,41.1,36.9,30.07,WSW,254,0.0,0.0,85,0.00,,,0.00,Wunderground v.1.15,2013-11-07 14:10:00,
2013-11-07 09:15:00,41.2,36.7,30.07,ESE,104,0.0,0.0,84,0.00,,,0.00,Wunderground v.1.15,2013-11-07 14:15:00,
2013-11-07 09:25:00,41.6,37.1,30.07,NE,50,0.0,0.0,84,0.00,,,0.00,Wunderground v.1.15,2013-11-07 14:25:00,
2013-11-07 09:30:00,41.6,36.8,30.07,ENE,69,0.0,0.0,83,0.00,,,0.00,Wunderground v.1.15,2013-11-07 14:30:00,
2013-11-07 09:40:00,41.9,37.4,30.07,West,267,0.0,0.0,84,0.00,,,0.00,Wunderground v.1.15,2013-11-07 14:40:00,
2013-11-07 09:45:00,41.9,36.2,30.07,SSW,207,0.0,0.0,80,0.00,,,0.00,Wunderground v.1.15,2013-11-07 14:45:00,
2013-11-07 09:55:00,41.6,35.6,30.07,East,95,0.0,1.0,79,0.00,,,0.00,Wunderground v.1.15,2013-11-07 14:55:00,
2013-11-07 10:00:00,41.5,35.5,30.08,West,267,0.0,0.0,79,0.00,,,0.00,Wunderground v.1.15,2013-11-07 15:00:00,
2013-11-07 10:09:00,41.5,35.8,30.08,East,90,0.0,0.0,80,0.00,,,0.00,Wunderground v.1.15,2013-11-07 15:09:00,
2013-11-07 10:15:00,41.6,35.9,30.09,NE,52,0.0,0.0,80,0.00,,,0.00,Wunderground v.1.15,2013-11-07 15:15:00,
2013-11-07 10:25:00,41.6,35.2,30.09,SSE,159,0.0,0.0,78,0.00,,,0.00,Wunderground v.1.15,2013-11-07 15:25:00,
2013-11-07 10:30:00,41.6,35.2,30.09,WSW,257,0.0,0.0,78,0.00,,,0.00,Wunderground v.1.15,2013-11-07 15:30:00,
2013-11-07 10:40:00,42.8,35.1,30.09,West,263,0.0,0.0,74,0.00,,,0.00,Wunderground v.1.15,2013-11-07 15:40:00,
2013-11-07 10:45:00,42.6,33.9,30.09,SW,227,0.0,0.0,71,0.00,,,0.00,Wunderground v.1.15,2013-11-07 15:45:00,
2013-11-07 10:55:00,41.8,33.8,30.09,West,259,0.0,0.0,73,0.00,,,0.00,Wunderground v.1.15,2013-11-07 15:55:00,
2013-11-07 11:00:00,41.8,33.8,30.10,WSW,257,0.0,0.0,73,0.00,,,0.00,Wunderground v.1.15,2013-11-07 16:00:00,
2013-11-07 11:10:00,41.9,33.9,30.10,West,277,1.0,1.0,73,0.00,,,0.00,Wunderground v.1.15,2013-11-07 16:10:00,
2013-11-07 11:15:00,42.1,33.0,30.10,ENE,66,1.0,1.0,70,0.00,,,0.00,Wunderground v.1.15,2013-11-07 16:15:00,
2013-11-07 11:25:00,41.3,32.6,30.10,NE,34,0.0,1.0,71,0.00,,,0.00,Wunderground v.1.15,2013-11-07 16:25:00,
2013-11-07 11:30:00,41.2,32.5,30.10,SW,236,0.0,0.0,71,0.00,,,0.00,Wunderground v.1.15,2013-11-07 16:30:00,
2013-11-07 11:40:00,41.3,31.5,30.10,SW,225,0.0,0.0,68,0.00,,,0.00,Wunderground v.1.15,2013-11-07 16:40:00,
2013-11-07 11:45:00,42.3,32.1,30.10,SW,219,0.0,0.0,67,0.00,,,0.00,Wunderground v.1.15,2013-11-07 16:45:00,
2013-11-07 11:55:00,43.3,28.6,30.10,NNE,26,0.0,0.0,56,0.00,,,0.00,Wunderground v.1.15,2013-11-07 16:55:00,
2013-11-07 12:00:00,43.6,27.6,30.10,SSE,167,0.0,0.0,53,0.00,,,0.00,Wunderground v.1.15,2013-11-07 17:00:00,
2013-11-07 12:10:00,43.9,27.4,30.10,WSW,254,1.0,1.0,52,0.00,,,0.00,Wunderground v.1.15,2013-11-07 17:10:00,
2013-11-07 12:15:00,43.8,28.7,30.11,North,355,0.0,1.0,55,0.00,,,0.00,Wunderground v.1.15,2013-11-07 17:15:00,
2013-11-07 12:25:00,44.3,25.3,30.11,ENE,57,0.0,5.0,47,0.00,,,0.00,Wunderground v.1.15,2013-11-07 17:25:00,
2013-11-07 12:30:00,44.5,27.5,30.09,ENE,57,1.0,1.0,51,0.00,,,0.00,Wunderground v.1.15,2013-11-07 17:30:00,
2013-11-07 12:40:00,44.9,27.4,30.09,ESE,112,0.0,0.0,50,0.00,,,0.00,Wunderground v.1.15,2013-11-07 17:40:00,
2013-11-07 12:45:00,45.4,28.8,30.09,NNE,15,0.0,3.0,52,0.00,,,0.00,Wunderground v.1.15,2013-11-07 17:45:00,
2013-11-07 12:55:00,44.9,25.3,30.09,ENE,65,1.0,1.0,46,0.00,,,0.00,Wunderground v.1.15,2013-11-07 17:55:00,
2013-11-07 13:00:00,44.5,25.5,30.08,WNW,286,1.0,1.0,47,0.00,,,0.00,Wunderground v.1.15,2013-11-07 18:00:00,
2013-11-07 13:10:00,45.8,28.7,30.08,West,273,0.0,0.0,51,0.00,,,0.00,Wunderground v.1.15,2013-11-07 18:10:00,
2013-11-07 13:15:00,45.8,27.7,30.09,SE,134,0.0,0.0,49,0.00,,,0.00,Wunderground v.1.15,2013-11-07 18:15:00,
2013-11-07 13:25:00,45.7,27.6,30.09,ENE,68,0.0,4.0,49,0.00,,,0.00,Wunderground v.1.15,2013-11-07 18:25:00,
2013-11-07 13:30:00,44.9,25.9,30.09,NNW,338,0.0,0.0,47,0.00,,,0.00,Wunderground v.1.15,2013-11-07 18:30:00,
2013-11-07 13:40:00,46.1,28.5,30.09,West,265,0.0,0.0,50,0.00,,,0.00,Wunderground v.1.15,2013-11-07 18:40:00,
2013-11-07 13:45:00,46.1,27.5,30.08,SW,221,0.0,0.0,48,0.00,,,0.00,Wunderground v.1.15,2013-11-07 18:45:00,
2013-11-07 13:55:00,45.5,28.4,30.08,NE,42,0.0,1.0,51,0.00,,,0.00,Wunderground v.1.15,2013-11-07 18:55:00,
2013-11-07 14:00:00,45.4,27.3,30.09,WSW,242,1.0,1.0,49,0.00,,,0.00,Wunderground v.1.15,2013-11-07 19:00:00,
2013-11-07 14:10:00,45.8,28.2,30.09,WSW,247,0.0,0.0,50,0.00,,,0.00,Wunderground v.1.15,2013-11-07 19:10:00,
2013-11-07 14:15:00,45.7,26.6,30.09,WSW,252,0.0,0.0,47,0.00,,,0.00,Wunderground v.1.15,2013-11-07 19:15:00,
2013-11-07 14:25:00,44.3,26.8,30.09,West,271,0.0,0.0,50,0.00,,,0.00,Wunderground v.1.15,2013-11-07 19:25:00,
2013-11-07 14:30:00,43.9,26.4,30.09,ESE,123,0.0,0.0,50,0.00,,,0.00,Wunderground v.1.15,2013-11-07 19:30:00,
2013-11-07 14:40:00,42.9,26.5,30.09,SW,214,0.0,0.0,52,0.00,,,0.00,Wunderground v.1.15,2013-11-07 19:40:00,
2013-11-07 14:45:00,42.8,27.3,30.09,WSW,250,0.0,0.0,54,0.00,,,0.00,Wunderground v.1.15,2013-11-07 19:45:00,
2013-11-07 14:55:00,42.8,26.4,30.09,WSW,240,0.0,0.0,52,0.00,,,0.00,Wunderground v.1.15,2013-11-07 19:55:00,
2013-11-07 15:00:00,42.6,26.2,30.09,NE,56,0.0,0.0,52,0.00,,,0.00,Wunderground v.1.15,2013-11-07 20:00:00,
2013-11-07 15:10:00,42.6,26.2,30.09,NE,53,0.0,0.0,52,0.00,,,0.00,Wunderground v.1.15,2013-11-07 20:10:00,
2013-11-07 15:20:00,42.8,27.7,30.08,East,93,0.0,0.0,55,0.00,,,0.00,Wunderground v.1.15,2013-11-07 20:20:00,
2013-11-07 15:25:00,42.6,28.0,30.08,NNE,31,0.0,0.0,56,0.00,,,0.00,Wunderground v.1.15,2013-11-07 20:25:00,
2013-11-07 15:30:00,42.6,28.0,30.08,North,9,0.0,0.0,56,0.00,,,0.00,Wunderground v.1.15,2013-11-07 20:30:00,
2013-11-07 15:40:00,43.1,28.9,30.08,SW,233,0.0,0.0,57,0.00,,,0.00,Wunderground v.1.15,2013-11-07 20:40:00,
2013-11-07 15:50:00,43.2,29.0,30.09,NNW,342,0.0,0.0,57,0.00,,,0.00,Wunderground v.1.15,2013-11-07 20:50:00,
2013-11-07 16:00:00,43.3,29.1,30.09,ENE,75,0.0,0.0,57,0.00,,,0.00,Wunderground v.1.15,2013-11-07 21:00:00,
2013-11-07 16:10:00,43.1,28.0,30.09,WSW,239,0.0,0.0,55,0.00,,,0.00,Wunderground v.1.15,2013-11-07 21:10:00,
2013-11-07 16:15:00,42.9,27.8,30.10,SW,236,0.0,0.0,55,0.00,,,0.00,Wunderground v.1.15,2013-11-07 21:15:00,
2013-11-07 16:25:00,42.6,27.5,30.10,WSW,242,0.0,0.0,55,0.00,,,0.00,Wunderground v.1.15,2013-11-07 21:25:00,
2013-11-07 16:30:00,42.5,27.9,30.10,WSW,243,0.0,0.0,56,0.00,,,0.00,Wunderground v.1.15,2013-11-07 21:30:00,
2013-11-07 16:40:00,42.3,28.1,30.10,SW,230,0.0,0.0,57,0.00,,,0.00,Wunderground v.1.15,2013-11-07 21:40:00,
2013-11-07 16:45:00,42.3,28.1,30.10,SW,230,0.0,0.0,57,0.00,,,0.00,Wunderground v.1.15,2013-11-07 21:45:00,
2013-11-07 16:55:00,41.9,28.2,30.10,SW,231,0.0,0.0,58,0.00,,,0.00,Wunderground v.1.15,2013-11-07 21:55:00,
2013-11-07 17:00:00,41.6,28.3,30.10,SW,231,0.0,0.0,59,0.00,,,0.00,Wunderground v.1.15,2013-11-07 22:00:00,
2013-11-07 17:10:00,41.2,28.4,30.10,SW,231,0.0,0.0,60,0.00,,,0.00,Wunderground v.1.15,2013-11-07 22:10:00,
2013-11-07 17:15:00,40.9,28.5,30.10,SW,231,0.0,0.0,61,0.00,,,0.00,Wunderground v.1.15,2013-11-07 22:15:00,
2013-11-07 17:25:00,40.3,28.7,30.10,SW,231,0.0,0.0,63,0.00,,,0.00,Wunderground v.1.15,2013-11-07 22:25:00,
2013-11-07 17:30:00,40.3,28.3,30.10,SW,231,0.0,0.0,62,0.00,,,0.00,Wunderground v.1.15,2013-11-07 22:30:00,
2013-11-07 17:40:00,40.2,28.6,30.10,SW,231,0.0,0.0,63,0.00,,,0.00,Wunderground v.1.15,2013-11-07 22:40:00,
2013-11-07 17:45:00,40.1,29.3,30.10,SW,231,0.0,0.0,65,0.00,,,0.00,Wunderground v.1.15,2013-11-07 22:45:00,
2013-11-07 17:55:00,39.8,28.6,30.10,SW,231,0.0,0.0,64,0.00,,,0.00,Wunderground v.1.15,2013-11-07 22:55:00,
2013-11-07 18:00:00,39.5,29.8,30.10,SW,231,0.0,0.0,68,0.00,,,0.00,Wunderground v.1.15,2013-11-07 23:00:00,
2013-11-07 18:10:00,38.6,28.9,30.10,SW,231,0.0,0.0,68,0.00,,,0.00,Wunderground v.1.15,2013-11-07 23:10:00,
2013-11-07 18:15:00,38.2,29.6,30.11,SW,231,0.0,0.0,71,0.00,,,0.00,Wunderground v.1.15,2013-11-07 23:15:00,
2013-11-07 18:25:00,37.5,29.3,30.11,SW,231,0.0,0.0,72,0.00,,,0.00,Wunderground v.1.15,2013-11-07 23:25:00,
2013-11-07 18:30:00,37.0,29.1,30.11,SW,231,0.0,0.0,73,0.00,,,0.00,Wunderground v.1.15,2013-11-07 23:30:00,
2013-11-07 18:39:00,36.6,29.1,30.11,SW,231,0.0,0.0,74,0.00,,,0.00,Wunderground v.1.15,2013-11-07 23:39:00,
2013-11-07 18:45:00,36.3,28.5,30.12,SW,231,0.0,0.0,73,0.00,,,0.00,Wunderground v.1.15,2013-11-07 23:45:00,
2013-11-07 18:55:00,36.0,28.8,30.12,SW,231,0.0,0.0,75,0.00,,,0.00,Wunderground v.1.15,2013-11-07 23:55:00,
2013-11-07 19:00:00,35.8,28.3,30.12,SW,231,0.0,0.0,74,0.00,,,0.00,Wunderground v.1.15,2013-11-08 00:00:00,
2013-11-07 19:10:00,35.5,28.4,30.12,SW,231,0.0,0.0,75,0.00,,,0.00,Wunderground v.1.15,2013-11-08 00:10:00,
2013-11-07 19:15:00,35.3,28.5,30.12,SW,231,0.0,0.0,76,0.00,,,0.00,Wunderground v.1.15,2013-11-08 00:15:00,
2013-11-07 19:25:00,35.0,28.2,30.12,SW,231,0.0,0.0,76,0.00,,,0.00,Wunderground v.1.15,2013-11-08 00:25:00,
2013-11-07 19:30:00,34.9,27.8,30.12,SW,231,0.0,0.0,75,0.00,,,0.00,Wunderground v.1.15,2013-11-08 00:30:00,
2013-11-07 19:40:00,34.7,27.6,30.12,SW,231,0.0,0.0,75,0.00,,,0.00,Wunderground v.1.15,2013-11-08 00:40:00,
2013-11-07 19:45:00,34.7,27.9,30.12,SW,231,0.0,0.0,76,0.00,,,0.00,Wunderground v.1.15,2013-11-08 00:45:00,
2013-11-07 19:55:00,35.0,27.5,30.12,SW,231,0.0,0.0,74,0.00,,,0.00,Wunderground v.1.15,2013-11-08 00:55:00,
2013-11-07 20:00:00,35.0,27.5,30.11,SW,231,0.0,0.0,74,0.00,,,0.00,Wunderground v.1.15,2013-11-08 01:00:00,
2013-11-07 20:10:00,34.7,27.6,30.11,SW,231,0.0,0.0,75,0.00,,,0.00,Wunderground v.1.15,2013-11-08 01:10:00,
2013-11-07 20:15:00,34.7,27.9,30.11,SW,231,0.0,0.0,76,0.00,,,0.00,Wunderground v.1.15,2013-11-08 01:15:00,
2013-11-07 20:25:00,34.4,27.3,30.11,SW,231,0.0,0.0,75,0.00,,,0.00,Wunderground v.1.15,2013-11-08 01:25:00,
2013-11-07 20:30:00,34.4,27.6,30.12,SW,231,0.0,0.0,76,0.00,,,0.00,Wunderground v.1.15,2013-11-08 01:30:00,
2013-11-07 20:40:00,34.7,27.6,30.12,SW,231,0.0,0.0,75,0.00,,,0.00,Wunderground v.1.15,2013-11-08 01:40:00,
2013-11-07 20:45:00,34.9,28.1,30.11,SW,231,0.0,0.0,76,0.00,,,0.00,Wunderground v.1.15,2013-11-08 01:45:00,
2013-11-07 20:55:00,35.2,28.4,30.11,SW,231,0.0,0.0,76,0.00,,,0.00,Wunderground v.1.15,2013-11-08 01:55:00,
2013-11-07 21:00:00,35.3,28.2,30.11,SW,231,0.0,0.0,75,0.00,,,0.00,Wunderground v.1.15,2013-11-08 02:00:00,
2013-11-07 21:10:00,35.9,28.7,30.11,SW,231,0.0,0.0,75,0.00,,,0.00,Wunderground v.1.15,2013-11-08 02:10:00,
2013-11-07 21:15:00,36.5,28.0,30.11,SW,231,0.0,0.0,71,0.00,,,0.00,Wunderground v.1.15,2013-11-08 02:15:00,
2013-11-07 21:25:00,37.0,28.5,30.11,SW,231,0.0,0.0,71,0.00,,,0.00,Wunderground v.1.15,2013-11-08 02:25:00,
2013-11-07 21:30:00,37.3,28.4,30.11,SW,230,0.0,0.0,70,0.00,,,0.00,Wunderground v.1.15,2013-11-08 02:30:00,
2013-11-07 21:40:00,37.8,28.2,30.11,SW,230,0.0,0.0,68,0.00,,,0.00,Wunderground v.1.15,2013-11-08 02:40:00,
2013-11-07 21:45:00,38.0,28.4,30.11,SW,231,0.0,0.0,68,0.00,,,0.00,Wunderground v.1.15,2013-11-08 02:45:00,
2013-11-07 21:55:00,38.3,27.9,30.11,SSW,206,0.0,0.0,66,0.00,,,0.00,Wunderground v.1.15,2013-11-08 02:55:00,
2013-11-07 22:00:00,38.6,27.1,30.11,South,171,0.0,0.0,63,0.00,,,0.00,Wunderground v.1.15,2013-11-08 03:00:00,
2013-11-07 22:10:00,38.8,27.7,30.11,SSW,203,0.0,0.0,64,0.00,,,0.00,Wunderground v.1.15,2013-11-08 03:10:00,
2013-11-07 22:15:00,38.8,27.7,30.11,East,90,0.0,0.0,64,0.00,,,0.00,Wunderground v.1.15,2013-11-08 03:15:00,
2013-11-07 22:25:00,38.8,27.7,30.11,East,81,0.0,0.0,64,0.00,,,0.00,Wunderground v.1.15,2013-11-08 03:25:00,
2013-11-07 22:30:00,38.8,28.0,30.11,ESE,105,0.0,0.0,65,0.00,,,0.00,Wunderground v.1.15,2013-11-08 03:30:00,
2013-11-07 22:40:00,38.6,27.8,30.11,South,180,0.0,0.0,65,0.00,,,0.00,Wunderground v.1.15,2013-11-08 03:40:00,
2013-11-07 22:45:00,38.6,28.2,30.10,SSW,192,0.0,0.0,66,0.00,,,0.00,Wunderground v.1.15,2013-11-08 03:45:00,
2013-11-07 22:55:00,38.6,27.8,30.10,SSW,201,0.0,0.0,65,0.00,,,0.00,Wunderground v.1.15,2013-11-08 03:55:00,
2013-11-07 23:00:00,38.6,28.2,30.10,SSW,201,0.0,0.0,66,0.00,,,0.00,Wunderground v.1.15,2013-11-08 04:00:00,
2013-11-07 23:10:00,38.5,28.5,30.10,East,96,0.0,0.0,67,0.00,,,0.00,Wunderground v.1.15,2013-11-08 04:10:00,
2013-11-07 23:15:00,38.5,28.5,30.10,East,91,0.0,0.0,67,0.00,,,0.00,Wunderground v.1.15,2013-11-08 04:15:00,
2013-11-07 23:25:00,38.6,28.2,30.10,SSW,202,0.0,0.0,66,0.00,,,0.00,Wunderground v.1.15,2013-11-08 04:25:00,
2013-11-07 23:30:00,38.8,28.0,30.10,WSW,255,0.0,0.0,65,0.00,,,0.00,Wunderground v.1.15,2013-11-08 04:30:00,
2013-11-07 23:40:00,38.9,28.1,30.10,WSW,256,0.0,0.0,65,0.00,,,0.00,Wunderground v.1.15,2013-11-08 04:40:00,
2013-11-07 23:45:00,39.1,28.3,30.10,WSW,256,0.0,0.0,65,0.00,,,0.00,Wunderground v.1.15,2013-11-08 04:45:00,
2013-11-07 23:55:00,39.3,28.1,30.10,West,259,0.0,0.0,64,0.00,,,0.00,Wunderground v.1.15,2013-11-08 04:55:00,